createdAt,value
2022-08-25T00:01:01.743Z,2.95
2022-08-25T00:03:48.091Z,5.07
2022-08-25T00:06:33.906Z,7.15
2022-08-25T00:09:21.932Z,3.80
2022-08-25T00:12:07.435Z,6.57
2022-08-25T00:14:53.131Z,3.38
2022-08-25T00:17:38.496Z,3.42
2022-08-25T00:20:25.407Z,3.70
2022-08-25T00:23:11.037Z,4.10
2022-08-25T00:25:56.570Z,4.35
2022-08-25T00:28:43.228Z,6.13
2022-08-25T00:31:37.676Z,4.88
2022-08-25T00:34:29.300Z,6.15
2022-08-25T00:37:16.219Z,4.00
2022-08-25T00:40:01.885Z,4.93
2022-08-25T00:42:47.688Z,9.75
2022-08-25T00:45:34.429Z,5.65
2022-08-25T00:48:19.570Z,4.07
2022-08-25T00:51:07.919Z,6.55
2022-08-25T00:53:53.548Z,4.63
2022-08-25T00:56:38.973Z,5.72
2022-08-25T00:59:26.379Z,6.47
2022-08-25T01:02:13.875Z,5.97
2022-08-25T01:04:59.788Z,4.88
2022-08-25T01:07:45.992Z,6.25
2022-08-25T01:10:32.096Z,8.55
2022-08-25T01:13:32.120Z,6.38
2022-08-25T01:16:17.715Z,4.05
2022-08-25T01:19:04.846Z,5.80
2022-08-25T01:21:52.181Z,6.53
2022-08-25T01:24:46.761Z,6.75
2022-08-25T01:27:41.467Z,3.15
2022-08-25T01:30:34.411Z,6.07
2022-08-25T01:33:26.576Z,4.10
2022-08-25T01:36:12.335Z,5.40
2022-08-25T01:38:58.684Z,4.30
2022-08-25T01:42:09.209Z,4.97
2022-08-25T01:44:55.155Z,3.42
2022-08-25T01:47:40.795Z,6.13
2022-08-25T01:50:26.861Z,3.72
2022-08-25T01:53:38.494Z,4.63
2022-08-25T01:56:23.689Z,3.85
2022-08-25T01:59:09.731Z,5.85
2022-08-25T02:01:59.638Z,4.22
2022-08-25T02:04:45.983Z,7.60
2022-08-25T02:07:31.920Z,5.13
2022-08-25T02:10:17.618Z,3.38
2022-08-25T02:13:03.373Z,5.10
2022-08-25T02:15:54.348Z,3.53
2022-08-25T02:18:39.493Z,5.85
2022-08-25T02:21:25.156Z,6.60
2022-08-25T02:24:11.546Z,7.45
2022-08-25T02:26:58.109Z,9.80
2022-08-25T02:29:43.528Z,11.25
2022-08-25T02:32:28.946Z,8.57
2022-08-25T02:35:14.699Z,8.27
2022-08-25T02:38:00.232Z,9.75
2022-08-25T02:40:45.548Z,8.30
2022-08-25T02:43:31.132Z,11.48
2022-08-25T02:46:19.922Z,7.90
2022-08-25T02:49:06.509Z,11.18
2022-08-25T02:51:54.087Z,7.70
2022-08-25T02:54:39.321Z,9.63
2022-08-25T02:57:24.916Z,9.57
2022-08-25T03:00:14.113Z,10.00
2022-08-25T03:03:00.306Z,8.93
2022-08-25T03:05:45.509Z,10.38
2022-08-25T03:08:31.070Z,9.25
2022-08-25T03:11:17.640Z,7.63
2022-08-25T03:14:03.085Z,7.47
2022-08-25T03:16:48.983Z,9.13
2022-08-25T03:19:34.763Z,8.20
2022-08-25T03:22:21.257Z,7.97
2022-08-25T03:25:25.600Z,14.27
2022-08-25T03:28:11.114Z,9.48
2022-08-25T03:30:57.115Z,7.72
2022-08-25T03:33:42.967Z,12.95
2022-08-25T03:36:28.962Z,8.70
2022-08-25T03:39:14.577Z,8.45
2022-08-25T03:41:59.663Z,7.53
2022-08-25T03:44:45.712Z,8.45
2022-08-25T03:47:31.491Z,9.48
2022-08-25T03:50:18.981Z,7.85
2022-08-25T03:53:04.562Z,8.45
2022-08-25T03:55:49.984Z,10.07
2022-08-25T03:58:35.559Z,15.57
2022-08-25T04:01:21.258Z,10.80
2022-08-25T04:04:08.926Z,9.90
2022-08-25T04:06:54.334Z,10.68
2022-08-25T04:09:39.804Z,16.48
2022-08-25T04:12:25.476Z,14.00
2022-08-25T04:15:11.370Z,11.75
2022-08-25T04:17:58.767Z,12.75
2022-08-25T04:20:46.760Z,10.27
2022-08-25T04:23:33.036Z,10.50
2022-08-25T04:26:22.204Z,11.70
2022-08-25T04:29:09.907Z,13.68
2022-08-25T04:31:55.779Z,9.95
2022-08-25T04:34:42.947Z,13.27
2022-08-25T04:37:28.332Z,13.82
2022-08-25T04:40:13.992Z,11.35
2022-08-25T04:42:59.706Z,11.73
2022-08-25T04:45:45.346Z,13.38
2022-08-25T04:48:31.903Z,13.18
2022-08-25T04:51:20.714Z,13.40
2022-08-25T04:59:08.713Z,16.80
2022-08-25T05:01:54.217Z,16.13
2022-08-25T05:04:40.036Z,18.92
2022-08-25T05:07:25.730Z,17.85
2022-08-25T05:10:11.539Z,16.58
2022-08-25T05:12:57.320Z,17.55
2022-08-25T05:15:51.775Z,17.58
2022-08-25T05:18:37.037Z,17.02
2022-08-25T05:21:26.250Z,17.15
2022-08-25T05:24:11.912Z,17.60
2022-08-25T05:26:58.173Z,17.33
2022-08-25T05:29:43.789Z,15.23
2022-08-25T05:32:29.349Z,14.65
2022-08-25T05:35:16.088Z,21.20
2022-08-25T05:38:02.011Z,17.02
2022-08-25T05:40:47.491Z,17.67
2022-08-25T05:43:33.582Z,15.77
2022-08-25T05:46:20.361Z,18.65
2022-08-25T05:49:06.958Z,20.40
2022-08-25T05:51:52.278Z,19.15
2022-08-25T05:54:37.872Z,19.52
2022-08-25T05:57:23.535Z,23.20
2022-08-25T06:00:10.363Z,17.77
2022-08-25T06:02:56.220Z,18.73
2022-08-25T06:05:41.852Z,17.50
2022-08-25T06:08:32.210Z,17.63
2022-08-25T06:11:17.880Z,24.35
2022-08-25T06:14:03.673Z,19.70
2022-08-25T06:16:51.467Z,24.27
2022-08-25T06:19:37.060Z,19.27
2022-08-25T06:22:25.900Z,19.45
2022-08-25T06:25:14.815Z,21.00
2022-08-25T06:28:00.544Z,19.60
2022-08-25T06:30:47.078Z,20.85
2022-08-25T06:33:32.889Z,21.95
2022-08-25T06:36:19.415Z,20.50
2022-08-25T06:39:05.084Z,22.17
2022-08-25T06:41:55.366Z,20.80
2022-08-25T06:44:41.103Z,19.88
2022-08-25T06:47:26.415Z,23.30
2022-08-25T06:50:11.870Z,25.80
2022-08-25T06:52:57.562Z,23.92
2022-08-25T06:55:43.083Z,23.25
2022-08-25T06:58:28.535Z,18.60
2022-08-25T07:01:22.224Z,22.98
2022-08-25T07:04:12.954Z,23.75
2022-08-25T07:06:59.444Z,20.88
2022-08-25T07:09:44.677Z,20.25
2022-08-25T07:12:30.285Z,19.77
2022-08-25T07:15:20.179Z,20.42
2022-08-25T07:18:19.447Z,17.58
2022-08-25T07:21:08.909Z,17.13
2022-08-25T07:23:58.330Z,20.65
2022-08-25T07:26:44.124Z,19.63
2022-08-25T07:29:32.835Z,17.67
2022-08-25T07:32:18.974Z,19.27
2022-08-25T07:35:18.824Z,18.90
2022-08-25T07:38:07.103Z,17.17
2022-08-25T07:41:02.453Z,15.45
2022-08-25T07:43:48.510Z,14.45
2022-08-25T07:46:36.348Z,14.43
2022-08-25T07:49:23.778Z,14.57
2022-08-25T07:52:09.633Z,15.38
2022-08-25T07:54:55.351Z,14.88
2022-08-25T07:57:42.241Z,15.45
2022-08-25T08:00:30.162Z,14.13
2022-08-25T08:03:35.286Z,16.45
2022-08-25T08:06:24.360Z,15.98
2022-08-25T08:09:09.898Z,14.25
2022-08-25T08:11:55.216Z,24.15
2022-08-25T08:14:44.863Z,16.73
2022-08-25T08:17:32.024Z,17.23
2022-08-25T08:20:17.872Z,14.43
2022-08-25T08:23:09.365Z,14.23
2022-08-25T08:25:55.587Z,12.60
2022-08-25T08:28:43.326Z,13.13
2022-08-25T08:31:28.871Z,15.70
2022-08-25T08:34:14.628Z,13.88
2022-08-25T08:37:01.499Z,14.95
2022-08-25T08:39:47.177Z,11.27
2022-08-25T08:42:47.052Z,13.95
2022-08-25T08:45:50.298Z,14.55
2022-08-25T08:51:47.394Z,12.43
2022-08-25T08:54:41.182Z,13.32
2022-08-25T08:57:29.167Z,11.10
2022-08-25T09:00:16.015Z,10.93
2022-08-25T09:03:12.119Z,11.02
2022-08-25T09:06:06.805Z,13.15
2022-08-25T09:09:02.084Z,13.82
2022-08-25T09:12:07.083Z,13.70
2022-08-25T09:14:57.655Z,16.38
2022-08-25T09:18:15.730Z,15.38
2022-08-25T09:21:25.621Z,13.98
2022-08-25T09:24:26.391Z,13.90
2022-08-25T09:27:57.727Z,13.88
2022-08-25T09:31:12.150Z,13.30
2022-08-25T09:34:01.551Z,12.88
2022-08-25T09:36:53.431Z,13.63
2022-08-25T09:39:42.529Z,15.40
2022-08-25T09:42:50.112Z,13.63
2022-08-25T09:45:48.190Z,14.82
2022-08-25T09:48:42.344Z,15.02
2022-08-25T09:51:42.446Z,13.98
2022-08-25T09:54:34.157Z,10.95
2022-08-25T09:57:36.553Z,13.02
2022-08-25T10:00:42.462Z,10.02
2022-08-25T10:03:27.931Z,7.75
2022-08-25T10:06:15.875Z,7.20
2022-08-25T10:09:07.441Z,8.50
2022-08-25T10:11:57.508Z,8.30
2022-08-25T10:14:44.487Z,7.03
2022-08-25T10:17:33.693Z,7.38
2022-08-25T10:20:30.903Z,6.60
2022-08-25T10:23:27.593Z,6.68
2022-08-25T10:26:34.823Z,4.95
2022-08-25T10:29:43.276Z,7.85
2022-08-25T10:32:50.365Z,5.85
2022-08-25T10:35:39.181Z,8.45
2022-08-25T10:38:36.031Z,7.03
2022-08-25T10:41:56.629Z,7.80
2022-08-25T10:45:43.920Z,8.18
2022-08-25T10:48:54.002Z,8.02
2022-08-25T10:51:43.814Z,8.50
2022-08-25T10:55:16.783Z,8.25
2022-08-25T10:58:34.398Z,6.63
2022-08-25T11:01:36.713Z,7.60
2022-08-25T11:04:31.538Z,4.85
2022-08-25T11:07:34.720Z,3.08
2022-08-25T11:10:31.591Z,4.90
2022-08-25T11:13:45.342Z,4.45
2022-08-25T11:16:39.278Z,5.22
2022-08-25T11:22:42.379Z,5.28
2022-08-25T11:25:42.416Z,3.70
2022-08-25T11:28:57.646Z,4.43
2022-08-25T11:31:52.250Z,3.85
2022-08-25T11:34:43.024Z,3.30
2022-08-25T11:37:33.803Z,5.20
2022-08-25T11:40:41.511Z,5.13
2022-08-25T11:43:55.194Z,4.70
2022-08-25T11:46:59.133Z,5.15
2022-08-25T11:49:50.630Z,5.60
2022-08-25T11:52:47.251Z,5.38
2022-08-25T11:55:58.316Z,3.15
2022-08-25T11:58:51.661Z,3.05
2022-08-25T12:01:40.226Z,5.28
2022-08-25T12:04:35.591Z,3.75
2022-08-25T12:07:48.828Z,2.78
2022-08-25T12:10:52.354Z,2.78
2022-08-25T12:13:50.831Z,5.25
2022-08-25T12:16:36.278Z,5.45
2022-08-25T12:19:28.583Z,4.45
2022-08-25T12:22:14.270Z,5.00
2022-08-25T12:25:13.967Z,3.17
2022-08-25T12:28:18.286Z,2.38
2022-08-25T12:31:16.359Z,4.25
2022-08-25T12:34:37.102Z,4.65
2022-08-25T12:37:24.639Z,4.20
2022-08-25T12:40:26.293Z,2.92
2022-08-25T12:43:33.317Z,3.20
2022-08-25T12:46:29.632Z,1.92
2022-08-25T12:49:15.573Z,1.95
2022-08-25T12:52:07.565Z,2.47
2022-08-25T12:55:00.443Z,2.00
2022-08-25T12:58:01.021Z,2.33
2022-08-25T13:01:23.063Z,3.20
2022-08-25T13:04:44.479Z,1.58
2022-08-25T13:07:36.253Z,2.35
2022-08-25T13:10:42.301Z,1.97
2022-08-25T13:13:33.903Z,2.30
2022-08-25T13:16:29.298Z,2.13
2022-08-25T13:19:20.047Z,1.75
2022-08-25T13:22:15.989Z,1.85
2022-08-25T13:25:03.790Z,1.75
2022-08-25T13:28:10.828Z,2.25
2022-08-25T13:31:14.040Z,3.20
2022-08-25T13:34:03.295Z,1.57
2022-08-25T13:37:10.085Z,3.67
2022-08-25T13:40:17.632Z,1.98
2022-08-25T13:43:07.930Z,1.90
2022-08-25T13:45:53.545Z,1.75
2022-08-25T13:48:49.518Z,2.35
2022-08-25T13:51:38.702Z,1.95
2022-08-25T13:54:31.705Z,2.88
2022-08-25T13:57:19.384Z,3.58
2022-08-25T14:00:11.414Z,2.20
2022-08-25T14:02:57.093Z,2.20
2022-08-25T14:05:44.401Z,2.78
2022-08-25T14:08:39.718Z,4.22
2022-08-25T14:11:31.784Z,1.83
2022-08-25T14:14:23.609Z,1.33
2022-08-25T14:17:39.088Z,1.85
2022-08-25T14:20:29.202Z,2.85
2022-08-25T14:23:19.304Z,2.30
2022-08-25T14:26:06.387Z,3.10
